Terminal Aerodrome Forecast
Issued by NWS

Home | Current Version | Previous Version | Text Only | Print | Product List | Glossary On
Versions: 1 2 3 4 5 6 7 8 9 10 11 12 13 14 15 16 17
000
FTUS43 KIND 241100
TAFBMG
TAF
KBMG 241120Z 2412/2512 12010KT P6SM SCT120 BKN250
     FM241600 15014G22KT P6SM BKN200
     FM250200 14012KT P6SM OVC100
     FM250400 16012KT 4SM -SHRA VCTS SCT020 OVC040CB
     FM250900 23014G22KT 3SM -SHRA BR OVC012
      AMD LTD TO CLD VIS AND WIND TIL 241300=

USA.gov is the U.S. government's official web portal to all federal, state and local government web resources and services.